History of Demon Blade

Rev.TitleCommentAuthorCreatedBytesImagesS.
51 (P)Demon Bladequest chestDragon2020-02-16 05:48:191978 (+66)46 (0)
50 (C|P)Demon Bladeupdated d...ocationsAmeliiiia2020-01-29 08:56:421912 (+75)46 (0)
49 (C|P)Demon BladeDropped by PrismimicObsession2019-10-02 16:22:171837 (+39)46 (+3)
48 (C|P)Demon BladeAdded note about DPSCrazeeyd2018-09-12 21:38:121798 (+74)43 (+6)
47 (C|P)Demon BladeAdded reskinValeforthe2018-08-27 12:07:261724 (+74)37 (0)
46 (C|P)Demon Blademore tipsThymeWarp2018-08-25 20:08:241650 (+268)37 (0)
45 (C|P)Demon BladesecondsPentaract2018-08-02 14:59:321382 (+1)37 (+1)
44 (C|P)Demon Bladechange gr...d to oldNzl2018-01-25 22:03:491381 (+23)36 (+1)
43 (C|P)Demon Bladebroken linkDeividlolz2017-09-05 18:59:211358 (+8)35 (+1)
42 (C|P)Demon Bladedrop templateDragon2017-07-28 21:28:311350 (+50)34 (+3)
41 (C|P)Demon BladetemplatesDragon2017-07-28 05:06:581300 (-26)31 (0)
40 (C|P)Demon BladeAdded wor...arc gap"Aopus2017-07-26 18:32:261326 (+8)31 (0)
39 (C|P)Demon BladeTrue Rang...s formatAopus2017-07-26 18:29:391318 (-5)31 (0)
38 (C|P)Demon BladenaviDragon2017-06-26 00:53:341323 (-4471)31 (+1)
37 (C|P)Demon Bladenew swordsPentaract2017-05-13 03:51:185794 (+362)30 (+3)
36 (C|P)Demon Bladeapril fools is overPentaract2017-05-12 22:24:345432 (-33)27 (0)
35 (C|P)Demon Bladeproperly ...omptableFakeGharr2016-12-29 09:31:015465 (+180)27 (+1)
34 (C|P)Demon Bladeadded imdo,p[tFakeGharr2016-12-28 11:12:345285 (+127)26 (0)
33 (C|P)Demon BladetypoDragon2016-10-25 20:46:345158 (+41)26 (0)
32 (C|P)Demon Blademarkdown conversionDragon2016-10-25 20:33:465117 (-17)26 (-3)
31 (C|P)Demon Blademake imag...ic.dripsDragon2016-08-28 01:50:355134 (+45)29 (0)
30 (C|P)Demon BladeNew Bit i...od SwordVeritan2016-06-25 16:05:595089 (-88)29 (0)
29 (C|P)Demon BladeAdded som...the tipsMidgetCow2016-06-15 21:39:065177 (+132)29 (0)
28 (C|P)Demon BladeWe alread... time...Creepsteam2015-11-05 00:02:105045 (-17)29 (0)
27 (C|P)Demon BladetypoMrLoaf2015-10-26 16:37:305062 (-2)29 (0)
26 (C|P)Demon BladeRecommend... for useNilmar2015-08-10 22:02:555064 (+205)29 (0)
25 (C|P)Demon BladeAdded tru...culator)Mochart2015-05-26 14:20:184859 (+23)29 (0)
24 (C|P)Demon Bladeadded tot...e damageOzTheMad2015-04-23 17:15:554836 (+12)29 (0)
23 (C|P)Demon BladeFixed gra... mistakeKeddyKed2015-02-20 16:47:234824 (-2)29 (0)
22 (C|P)Demon BladeFixed a spaceShablo2015-02-20 03:41:014826 (-1)29 (0)
21 (C|P)Demon BladeWarrior fun factKeddyKed2015-02-19 22:51:164827 (+100)29 (0)
20 (C|P)Demon BladeChanged p...r edits.Vlad2014-11-03 03:10:454727 (+110)29 (+1)
19 (C|P)Demon BladeChanged P...ds page)Veritan2014-08-30 21:20:024617 (+331)28 (+3)
18 (C|P)Demon Bladeadded swo...igation.BenjaShimL2014-06-19 07:33:394286 (-50)25 (0)
17 (C|P)Demon Bladeadded swo...igation.BenjaShimL2014-06-19 07:08:334336 (+123)25 (+1)
16 (C|P)Demon Bladeremoved speculationDragon2014-06-07 03:51:374213 (-142)24 (0)
15 (C|P)Demon Bladequick fix... mistakeAcerbate2014-06-06 23:10:004355 (+5)24 (0)
14 (C|P)Demon BladeAdding in...w updateAcerbate2014-06-06 23:09:254350 (+135)24 (0)
13 (C|P)Demon BladePlease do...tem-loreJoanOfArc2014-02-18 23:09:224215 (-381)24 (0)
12 (C|P)Demon Bladeadded lor...HI JOAN)Deathmonge2014-02-18 22:54:464596 (+381)24 (0)
11 (C|P)Demon BladeUpdated navigationJoanOfArc2014-01-14 02:41:344215 (+38)24 (0)
10 (C|P)Demon BladeRemoved d...estimateJoanOfArc2014-01-11 11:21:114177 (-43)24 (0)
9 (C|P)Demon Bladeadded est...p chanceAfrolix2014-01-11 11:10:484220 (+43)24 (0)
8 (C|P)Demon BladeAdded bit imageJoanOfArc2014-01-03 09:44:184177 (-71)24 (0)
7 (C|P)Demon BladeMoved frostbiteJoanOfArc2013-12-20 08:08:494248 (+180)24 (+1)
6 (C|P)Demon Bladenavigatio...jsutmentVeritan2013-12-07 15:09:544068 (+9)23 (0)
5 (C|P)Demon BladeCleaning ...vigationVeritan2013-12-06 02:19:274059 (+57)23 (+4)
4 (C|P)Demon BladeFixed Next UT.Quazzaz2013-12-05 03:49:244002 (-4)19 (0)
3 (C|P)Demon BladeAdded sku...igation.Quazzaz2013-12-03 23:23:364006 (+253)19 (+1)
2 (C|P)Demon BladeHTML-enco...e symbolJoanOfArc2013-12-03 04:52:493753 (+4)18 (0)
1 (C)Demon BladeFrom the old wikiMrEyeball2013-11-21 13:50:483749 18